写真って難しい…

LUXURY FLIGHT

03-6423-7371

羽田本店:東京都大田区羽田5-11-1
営業時間:10:00~20:00
定休日:年中無休

セントレア店:愛知県常滑市セントレア1-1
営業時間:10:00~20:00
定休日:年中無休

lv

写真って難しい…

STAFF BLOG

2020/01/18 写真って難しい…

こんにちは

 

本日の羽田METARは…

 

RJTT 180130Z 02019KT 5000 -RASN BR FEW007 BKN010 BKN015 03/02 Q1013

TEMPO 4000 -RASN BR FEW005 BKN008 RMK 1ST007 5SC010 7SC015 A2994

 

」マークをつけてみたものの、羽田周辺には雪は降っておりません。笑

 

このマークは今の私の心を表現しております。

 

と言いますのも、最近ブログで使うお客様の写真が、少々ワンパターンかなと思い、

社長の一眼レフを私物化しつつ、様々な構図で試したものの…

 

何一つ上手くいきませんでした。

 

 

脇を締めてしっかりシャッターを押そうとするも変な力みが手ブレを作り…

ボカシを入れようと必死にフォーカスと戦った所、私の尋常じゃない手汗がレンズを曇らせ…

お客様の操縦桿の動きを表現しようとしたらシャッタースピード?が違うのか、

お客様の肩から手首にかけて「レレレのおじさん」みたいなブレが出てしまい…

 

これはカメラのせいだ!!

 

と決めつけ、自前で一眼レフを用意しましたが。

 

 

完全に私の勘違いでした。

むしろケチって安いグレードにしたのであからさまに

撮った写真が暗いです。

 

やはり、こういう世界は絵心と言いましょうか、

アートの世界ですね。

 

私は未だに「ヒト」を表現する際には棒人間しか描けませんので

芸術および、アートの才能は母のお腹に置いてきたようです。

 

うむ。大変難しい…

 

そんな切実な思いを、常連さんのカメラマンさんに相談したところ、

 

「ていうか、iPhoneでも全然綺麗に撮れるよ?」

 

の一言で、私のアマチュアカメラマン生活は、つい先ほど終わりました。

 

従いまして、今仕事中ではありますが

ヤフオク!にカメラの出品作業をしている今日この頃です。

 

と同時に、私の尊敬する職業ランキングに「カメラマン」が

追加されたのはいうまでもありません。

 

そんな常連のカメラマンの一人、

「T.Fujiba」さんが写真仲間と銀座のギャラリーで写真展をされるそうですので、

ご興味ある方は是非いらっしゃってみてくださーーーい!!

 

尚、タイトルの【鴨鍋始めました】は写真展のタイトルだそうです。

鴨鍋が振舞われる訳ではないそうですのでご注意を!!!

 

 

img_0419

 

 

いつもブログを読んでくださり本当にありがとうございます!!

 

「感謝」

TOP